createdAt,value
2022-11-17T00:00:13.076Z,96018.81
2022-11-17T00:05:05.110Z,96014.81
2022-11-17T00:09:57.042Z,96018.91
2022-11-17T00:14:48.838Z,96014.09
2022-11-17T00:20:06.600Z,96004.97
2022-11-17T00:24:58.459Z,96000.69
2022-11-17T00:29:50.311Z,95998.78
2022-11-17T00:34:42.079Z,96002.56
2022-11-17T00:39:34.147Z,96002.34
2022-11-17T00:44:26.581Z,96006.66
2022-11-17T00:49:25.074Z,95990.78
2022-11-17T00:54:16.669Z,95994.56
2022-11-17T00:59:08.713Z,95998.88
2022-11-17T01:04:04.429Z,95993.47
2022-11-17T01:08:56.340Z,95994.56
2022-11-17T01:13:48.196Z,95988.38
2022-11-17T01:18:40.897Z,95997.25
2022-11-17T01:23:32.995Z,95991.84
2022-11-17T01:28:24.898Z,95997.25
2022-11-17T01:33:16.572Z,95992.44
2022-11-17T01:38:08.193Z,95992.94
2022-11-17T01:42:59.911Z,95999.16
2022-11-17T01:48:03.325Z,95999.16
2022-11-17T01:52:59.736Z,96003.44
2022-11-17T01:57:56.749Z,96000.25
2022-11-17T02:02:49.288Z,95992.66
2022-11-17T02:07:43.294Z,95999.94
2022-11-17T02:12:37.032Z,96003.72
2022-11-17T02:17:42.036Z,96006.13
2022-11-17T02:22:52.509Z,96005.63
2022-11-17T02:27:49.841Z,95997.03
2022-11-17T02:32:47.168Z,95996.22
2022-11-17T02:37:52.129Z,95992.22
2022-11-17T02:43:06.418Z,95997.03
2022-11-17T02:48:00.813Z,96000.53
2022-11-17T02:52:52.639Z,95990.03
2022-11-17T02:57:44.462Z,95990.03
2022-11-17T03:03:13.508Z,95993.75
2022-11-17T03:08:28.720Z,95988.88
2022-11-17T03:13:49.550Z,95982.44
2022-11-17T03:18:56.069Z,95982.97
2022-11-17T03:23:53.432Z,95995.34
2022-11-17T03:28:46.835Z,95984.84
2022-11-17T03:33:40.685Z,95988.94
2022-11-17T03:38:37.080Z,95986.25
2022-11-17T03:43:31.446Z,95988.94
2022-11-17T03:48:30.262Z,95987.91
2022-11-17T03:53:22.559Z,95992.53
2022-11-17T03:58:18.644Z,95988.22
2022-11-17T04:03:10.477Z,95990.91
2022-11-17T04:08:02.426Z,95992.00
2022-11-17T04:13:13.384Z,96000.38
2022-11-17T04:18:05.250Z,95986.69
2022-11-17T04:23:09.149Z,95989.09
2022-11-17T04:28:19.506Z,95998.56
2022-11-17T04:33:11.198Z,95996.75
2022-11-17T04:38:02.899Z,95996.75
2022-11-17T04:42:54.562Z,96014.53
2022-11-17T04:47:46.298Z,95999.16
2022-11-17T04:52:37.953Z,96003.25
2022-11-17T04:57:29.548Z,96012.44
2022-11-17T05:02:22.984Z,96006.44
2022-11-17T05:07:15.098Z,96002.97
2022-11-17T05:12:25.885Z,96003.53
2022-11-17T05:17:17.918Z,96001.94
2022-11-17T05:22:34.094Z,96006.00
2022-11-17T05:27:26.261Z,96013.81
2022-11-17T05:32:18.393Z,96012.22
2022-11-17T05:37:13.160Z,96010.81
2022-11-17T05:42:05.259Z,96014.63
2022-11-17T05:46:56.856Z,96019.19
2022-11-17T05:51:52.461Z,96011.41
2022-11-17T05:56:49.962Z,96021.38
2022-11-17T06:01:53.090Z,96011.69
2022-11-17T06:06:45.585Z,96022.72
2022-11-17T06:11:37.233Z,96024.59
2022-11-17T06:16:33.293Z,96026.19
2022-11-17T06:21:24.931Z,96025.13
2022-11-17T06:26:16.809Z,96023.50
2022-11-17T06:31:08.787Z,96030.28
2022-11-17T06:36:02.326Z,96036.50
2022-11-17T06:40:54.302Z,96026.78
2022-11-17T06:45:47.053Z,96027.88
2022-11-17T06:50:38.983Z,96032.47
2022-11-17T06:55:30.731Z,96030.28
2022-11-17T07:00:22.630Z,96038.06
2022-11-17T07:05:14.366Z,96024.88
2022-11-17T07:10:06.566Z,96034.09
2022-11-17T07:14:58.364Z,96035.66
2022-11-17T07:19:50.261Z,96039.19
2022-11-17T07:24:41.963Z,96028.69
2022-11-17T07:29:33.734Z,96031.88
2022-11-17T07:34:25.427Z,96023.78
2022-11-17T07:39:21.217Z,96034.38
2022-11-17T07:44:13.618Z,96044.88
2022-11-17T07:49:05.589Z,96051.84
2022-11-17T07:53:57.384Z,96053.75
2022-11-17T07:58:49.107Z,96047.88
2022-11-17T08:03:40.938Z,96050.56
2022-11-17T08:08:33.343Z,96047.03
2022-11-17T08:13:25.509Z,96050.84
2022-11-17T08:18:17.620Z,96061.34
2022-11-17T08:23:09.450Z,96053.75
2022-11-17T08:28:01.309Z,96062.66
2022-11-17T08:32:54.684Z,96066.97
2022-11-17T08:37:46.807Z,96064.56
2022-11-17T08:42:38.978Z,96066.97
2022-11-17T08:47:30.698Z,96073.16
2022-11-17T08:52:22.771Z,96072.56
2022-11-17T08:57:14.516Z,96079.56
2022-11-17T09:02:06.225Z,96069.56
2022-11-17T09:06:57.962Z,96066.88
2022-11-17T09:11:49.695Z,96072.53
2022-11-17T09:16:41.413Z,96065.72
2022-11-17T09:21:34.116Z,96068.38
2022-11-17T09:26:26.132Z,96070.47
2022-11-17T09:31:20.347Z,96074.19
2022-11-17T09:36:14.108Z,96067.13
2022-11-17T09:41:42.707Z,96068.94
2022-11-17T09:46:55.873Z,96067.56
2022-11-17T09:51:50.101Z,96065.38
2022-11-17T09:56:42.199Z,96069.91
2022-11-17T10:01:33.966Z,96072.31
2022-11-17T10:06:28.942Z,96076.53
2022-11-17T10:11:33.143Z,96086.44
2022-11-17T10:16:25.017Z,96084.25
2022-11-17T10:21:16.813Z,96083.91
2022-11-17T10:26:11.755Z,96092.72
2022-11-17T10:31:23.779Z,96082.38
2022-11-17T10:36:30.457Z,96087.97
2022-11-17T10:41:39.240Z,96094.91
2022-11-17T10:46:40.562Z,96097.53
2022-11-17T10:51:35.865Z,96093.38
2022-11-17T10:56:29.000Z,96092.47
2022-11-17T11:01:29.347Z,96099.16
2022-11-17T11:06:27.562Z,96100.50
2022-11-17T11:11:21.998Z,96100.69
2022-11-17T11:16:13.828Z,96102.91
2022-11-17T11:21:24.825Z,96109.63
2022-11-17T11:26:44.721Z,96109.31
2022-11-17T11:31:48.860Z,96099.31
2022-11-17T11:37:00.550Z,96109.03
2022-11-17T11:42:10.679Z,96102.00
2022-11-17T11:47:32.901Z,96108.44
2022-11-17T11:52:30.287Z,96106.53
2022-11-17T11:57:29.466Z,96106.22
2022-11-17T12:03:03.393Z,96101.31
2022-11-17T12:08:11.124Z,96110.75
2022-11-17T12:13:04.793Z,96107.94
2022-11-17T12:17:59.086Z,96115.75
2022-11-17T12:23:20.367Z,96122.69
2022-11-17T12:28:38.396Z,96128.63
2022-11-17T12:33:54.648Z,96126.41
2022-11-17T12:38:46.707Z,96122.91
2022-11-17T12:43:38.616Z,96130.50
2022-11-17T12:48:36.245Z,96130.19
2022-11-17T12:53:49.874Z,96144.84
2022-11-17T12:59:17.935Z,96132.69
2022-11-17T13:04:35.557Z,96136.19
2022-11-17T13:09:33.457Z,96137.31
2022-11-17T13:14:26.606Z,96142.19
2022-11-17T13:19:39.789Z,96134.69
2022-11-17T13:24:34.862Z,96140.09
2022-11-17T13:29:26.832Z,96143.91
2022-11-17T13:34:21.452Z,96137.69
2022-11-17T13:39:20.577Z,96148.38
2022-11-17T13:44:20.551Z,96145.75
2022-11-17T13:49:38.014Z,96151.44
2022-11-17T13:54:30.407Z,96151.84
2022-11-17T13:59:31.489Z,96160.44
2022-11-17T14:04:24.338Z,96149.94
2022-11-17T14:09:19.188Z,96150.75
2022-11-17T14:14:18.774Z,96156.16
2022-11-17T14:19:16.234Z,96148.34
2022-11-17T14:24:13.017Z,96157.53
2022-11-17T14:29:05.045Z,96164.03
2022-11-17T14:33:56.796Z,96167.56
2022-11-17T14:38:48.498Z,96168.63
2022-11-17T14:43:40.135Z,96162.72
2022-11-17T14:48:31.959Z,96158.72
2022-11-17T14:53:25.031Z,96154.91
2022-11-17T14:58:16.772Z,96142.59
2022-11-17T15:03:08.471Z,96160.38
2022-11-17T15:08:00.316Z,96167.19
2022-11-17T15:12:52.456Z,96169.06
2022-11-17T15:17:44.284Z,96164.78
2022-11-17T15:22:37.221Z,96166.47
2022-11-17T15:27:28.931Z,96167.53
2022-11-17T15:32:20.577Z,96168.94
2022-11-17T15:37:13.643Z,96186.25
2022-11-17T15:42:05.416Z,96181.44
2022-11-17T15:46:57.172Z,96180.41
2022-11-17T15:51:49.075Z,96186.63
2022-11-17T15:56:40.790Z,96179.91
2022-11-17T16:01:40.506Z,96188.00
2022-11-17T16:06:34.580Z,96180.97
2022-11-17T16:11:27.213Z,96191.88
2022-11-17T16:16:19.002Z,96184.31
2022-11-17T16:21:13.540Z,96202.41
2022-11-17T16:26:05.445Z,96202.19
2022-11-17T16:30:57.175Z,96195.78
2022-11-17T16:35:48.835Z,96214.38
2022-11-17T16:40:41.319Z,96213.06
2022-11-17T16:45:43.892Z,96224.66
2022-11-17T16:50:39.905Z,96234.66
2022-11-17T16:55:35.758Z,96231.97
2022-11-17T17:00:27.814Z,96230.59
2022-11-17T17:05:19.747Z,96230.88
2022-11-17T17:10:11.866Z,96227.06
2022-11-17T17:15:05.087Z,96235.16
2022-11-17T17:19:57.130Z,96238.69
2022-11-17T17:24:48.818Z,96239.97
2022-11-17T17:29:40.480Z,96256.72
2022-11-17T17:34:32.399Z,96243.22
2022-11-17T17:39:24.098Z,96262.91
2022-11-17T17:44:18.585Z,96269.09
2022-11-17T17:49:10.512Z,96271.00
2022-11-17T17:54:02.342Z,96279.13
2022-11-17T17:58:55.198Z,96281.53
2022-11-17T18:03:48.899Z,96281.53
2022-11-17T18:08:40.578Z,96294.75
2022-11-17T18:13:33.699Z,96290.44
2022-11-17T18:18:25.518Z,96297.19
2022-11-17T18:23:17.251Z,96312.31
2022-11-17T18:28:09.017Z,96320.13
2022-11-17T18:33:03.148Z,96321.75
2022-11-17T18:37:54.951Z,96324.44
2022-11-17T18:42:47.078Z,96325.25
2022-11-17T18:47:39.475Z,96325.81
2022-11-17T18:52:31.766Z,96336.09
2022-11-17T18:57:23.771Z,96338.03
2022-11-17T19:02:15.614Z,96343.16
2022-11-17T19:07:08.735Z,96342.16
2022-11-17T19:12:00.599Z,96350.25
2022-11-17T19:16:54.895Z,96360.22
2022-11-17T19:21:46.973Z,96367.53
2022-11-17T19:26:38.732Z,96369.72
2022-11-17T19:31:31.014Z,96371.88
2022-11-17T19:36:29.571Z,96370.81
2022-11-17T19:41:24.347Z,96378.09
2022-11-17T19:46:17.416Z,96373.22
2022-11-17T19:51:21.429Z,96384.00
2022-11-17T19:56:13.532Z,96386.72
2022-11-17T20:01:14.529Z,96384.31
2022-11-17T20:06:08.056Z,96392.41
2022-11-17T20:11:04.505Z,96400.78
2022-11-17T20:16:00.557Z,96403.78
2022-11-17T20:20:52.178Z,96407.25
2022-11-17T20:25:43.942Z,96409.97
2022-11-17T20:30:38.047Z,96428.56
2022-11-17T20:35:29.921Z,96432.38
2022-11-17T20:40:21.579Z,96430.75
2022-11-17T20:45:13.262Z,96442.06
2022-11-17T20:50:05.445Z,96450.47
2022-11-17T20:54:57.168Z,96458.28
2022-11-17T20:59:48.924Z,96457.19
2022-11-17T21:04:40.734Z,96474.19
2022-11-17T21:09:32.372Z,96476.91
2022-11-17T21:14:26.524Z,96492.59
2022-11-17T21:19:18.618Z,96497.69
2022-11-17T21:24:11.353Z,96509.28
2022-11-17T21:29:06.757Z,96512.28
2022-11-17T21:34:04.342Z,96516.88
2022-11-17T21:38:57.225Z,96525.75
2022-11-17T21:43:50.790Z,96524.66
2022-11-17T21:48:42.885Z,96526.28
2022-11-17T21:53:34.633Z,96535.16
2022-11-17T21:58:26.282Z,96538.41
2022-11-17T22:03:18.110Z,96546.50
2022-11-17T22:08:09.793Z,96542.72
2022-11-17T22:13:01.504Z,96552.72
2022-11-17T22:17:53.239Z,96558.91
2022-11-17T22:22:45.565Z,96543.53
2022-11-17T22:27:37.203Z,96561.59
2022-11-17T22:32:29.011Z,96558.91
2022-11-17T22:37:20.706Z,96565.41
2022-11-17T22:42:14.321Z,96558.91
2022-11-17T22:47:06.003Z,96561.88
2022-11-17T22:52:03.845Z,96566.50
2022-11-17T22:56:55.541Z,96564.88
2022-11-17T23:01:47.205Z,96576.44
2022-11-17T23:06:38.907Z,96578.06
2022-11-17T23:11:36.903Z,96579.16
2022-11-17T23:16:30.070Z,96585.91
2022-11-17T23:21:22.316Z,96594.00
2022-11-17T23:26:14.500Z,96606.66
2022-11-17T23:31:09.769Z,96601.56
2022-11-17T23:36:02.714Z,96604.25
2022-11-17T23:41:00.130Z,96610.75
2022-11-17T23:45:51.787Z,96612.34
2022-11-17T23:50:43.591Z,96611.56
2022-11-17T23:55:35.259Z,96620.47
